createdAt,value
2022-12-09T00:04:21.462Z,13.07
2022-12-09T00:09:23.417Z,13.18
2022-12-09T00:14:25.742Z,12.85
2022-12-09T00:19:27.649Z,14.93
2022-12-09T00:24:29.533Z,15.80
2022-12-09T00:29:31.548Z,14.57
2022-12-09T00:34:33.413Z,14.50
2022-12-09T00:39:35.123Z,14.55
2022-12-09T00:44:36.906Z,14.82
2022-12-09T00:49:38.995Z,15.85
2022-12-09T00:54:40.842Z,14.23
2022-12-09T01:00:36.494Z,16.17
2022-12-09T01:05:38.336Z,15.82
2022-12-09T01:10:42.093Z,14.88
2022-12-09T01:15:44.555Z,16.17
2022-12-09T01:20:56.485Z,15.20
2022-12-09T01:25:58.510Z,16.17
2022-12-09T01:31:17.834Z,15.20
2022-12-09T01:36:22.860Z,15.70
2022-12-09T01:41:25.053Z,16.67
2022-12-09T01:46:26.828Z,17.42
2022-12-09T01:51:30.476Z,15.98
2022-12-09T01:56:35.021Z,17.02
2022-12-09T02:01:38.825Z,16.13
2022-12-09T02:06:41.019Z,19.10
2022-12-09T02:12:08.374Z,18.25
2022-12-09T02:17:28.942Z,19.33
2022-12-09T02:22:40.837Z,18.77
2022-12-09T02:27:59.164Z,18.60
2022-12-09T02:33:19.454Z,19.05
2022-12-09T02:38:31.934Z,19.00
2022-12-09T02:43:41.137Z,20.08
2022-12-09T02:48:55.937Z,19.88
2022-12-09T02:54:03.992Z,19.65
2022-12-09T02:59:09.608Z,20.08
2022-12-09T03:04:21.346Z,19.20
2022-12-09T03:09:33.989Z,19.13
2022-12-09T03:14:41.883Z,19.90
2022-12-09T03:20:05.045Z,19.02
2022-12-09T03:25:26.392Z,17.45
2022-12-09T03:30:36.770Z,17.88
2022-12-09T03:35:46.458Z,18.77
2022-12-09T03:40:53.949Z,18.45
2022-12-09T03:45:57.523Z,17.25
2022-12-09T03:51:15.913Z,20.27
2022-12-09T03:56:45.532Z,19.77
2022-12-09T04:01:47.808Z,19.15
2022-12-09T04:06:51.758Z,18.92
2022-12-09T04:11:53.411Z,19.90
2022-12-09T04:16:55.343Z,19.13
2022-12-09T04:21:57.044Z,20.02
2022-12-09T04:26:58.939Z,19.02
2022-12-09T04:32:00.721Z,19.80
2022-12-09T04:37:02.541Z,20.48
2022-12-09T04:42:04.605Z,19.50
2022-12-09T04:47:06.516Z,17.77
2022-12-09T04:52:08.138Z,20.10
2022-12-09T04:57:12.348Z,19.92
2022-12-09T05:02:15.123Z,20.77
2022-12-09T05:07:17.270Z,20.52
2022-12-09T05:12:19.439Z,21.38
2022-12-09T05:17:21.846Z,20.95
2022-12-09T05:22:24.011Z,20.85
2022-12-09T05:27:26.048Z,19.35
2022-12-09T05:32:30.957Z,18.88
2022-12-09T05:37:33.401Z,17.52
2022-12-09T05:42:41.168Z,19.05
2022-12-09T05:47:44.173Z,19.63
2022-12-09T05:52:46.635Z,23.23
2022-12-09T05:57:48.819Z,22.85
2022-12-09T06:02:50.957Z,21.73
2022-12-09T06:07:53.234Z,22.10
2022-12-09T06:12:55.454Z,19.48
2022-12-09T06:17:57.340Z,21.13
2022-12-09T06:22:59.518Z,19.83
2022-12-09T06:28:01.475Z,22.65
2022-12-09T06:33:17.282Z,21.13
2022-12-09T06:38:25.482Z,23.17
2022-12-09T06:43:27.779Z,21.65
2022-12-09T06:48:30.107Z,20.55
2022-12-09T06:53:35.363Z,21.48
2022-12-09T06:58:37.381Z,19.55
2022-12-09T07:03:40.940Z,18.80
2022-12-09T07:08:42.802Z,18.42
2022-12-09T07:13:44.943Z,18.40
2022-12-09T07:18:46.973Z,17.27
2022-12-09T07:23:49.186Z,19.90
2022-12-09T07:28:51.320Z,18.95
2022-12-09T07:33:55.549Z,20.35
2022-12-09T07:39:03.265Z,17.40
2022-12-09T07:44:05.464Z,17.15
2022-12-09T07:49:10.105Z,17.98
2022-12-09T07:54:16.550Z,19.45
2022-12-09T07:59:18.495Z,18.73
2022-12-09T08:04:20.850Z,17.48
2022-12-09T08:09:22.914Z,17.45
2022-12-09T08:14:24.736Z,17.38
2022-12-09T08:19:27.058Z,19.25
2022-12-09T08:24:29.464Z,18.80
2022-12-09T08:29:31.368Z,16.40
2022-12-09T08:34:33.315Z,17.40
2022-12-09T08:39:35.538Z,17.35
2022-12-09T08:44:38.804Z,17.65
2022-12-09T08:49:41.129Z,17.25
2022-12-09T08:54:43.127Z,18.95
2022-12-09T08:59:45.492Z,18.23
2022-12-09T09:04:48.455Z,21.10
2022-12-09T09:09:50.489Z,19.67
2022-12-09T09:14:54.810Z,20.15
2022-12-09T09:19:56.790Z,19.27
2022-12-09T09:24:58.997Z,20.27
2022-12-09T09:30:00.899Z,21.40
2022-12-09T09:35:03.384Z,19.10
2022-12-09T09:40:07.054Z,20.40
2022-12-09T09:45:16.005Z,20.17
2022-12-09T09:50:33.105Z,19.45
2022-12-09T09:55:43.135Z,20.13
2022-12-09T10:00:56.000Z,21.05
2022-12-09T10:06:06.399Z,19.73
2022-12-09T10:11:17.999Z,19.25
2022-12-09T10:16:26.631Z,19.42
2022-12-09T10:21:32.102Z,20.33
2022-12-09T10:26:35.354Z,19.23
2022-12-09T10:31:37.509Z,19.42
2022-12-09T10:36:43.872Z,20.20
2022-12-09T10:42:10.546Z,19.25
2022-12-09T10:47:27.212Z,21.23
2022-12-09T10:52:37.862Z,21.95
2022-12-09T10:57:40.011Z,21.52
2022-12-09T11:02:50.693Z,19.50
2022-12-09T11:07:54.341Z,18.23
2022-12-09T11:13:06.382Z,19.92
2022-12-09T11:18:19.210Z,20.33
2022-12-09T11:23:21.344Z,19.08
2022-12-09T11:28:32.862Z,20.02
2022-12-09T11:33:41.914Z,19.00
2022-12-09T11:38:46.528Z,19.52
2022-12-09T11:43:50.179Z,20.13
2022-12-09T11:48:57.369Z,20.42
2022-12-09T12:04:36.194Z,19.45
2022-12-09T12:09:57.356Z,18.80
2022-12-09T12:15:10.202Z,18.83
2022-12-09T12:20:13.728Z,19.77
2022-12-09T12:25:34.108Z,19.63
2022-12-09T12:30:48.152Z,20.23
2022-12-09T12:36:11.341Z,19.38
2022-12-09T12:41:44.245Z,17.35
2022-12-09T12:47:16.718Z,16.52
2022-12-09T12:52:59.408Z,17.38
2022-12-09T12:58:16.177Z,18.02
2022-12-09T13:03:26.105Z,16.52
2022-12-09T13:08:39.204Z,18.38
2022-12-09T13:13:51.306Z,19.25
2022-12-09T13:18:53.713Z,18.33
2022-12-09T13:24:26.701Z,38.33
2022-12-09T13:29:43.890Z,21.35
2022-12-09T13:34:55.467Z,31.10
2022-12-09T13:39:58.680Z,19.52
2022-12-09T13:45:23.500Z,18.42
2022-12-09T13:50:57.492Z,19.55
2022-12-09T13:56:07.097Z,19.90
2022-12-09T14:01:15.344Z,19.27
2022-12-09T14:06:46.308Z,20.70
2022-12-09T14:11:56.217Z,20.17
2022-12-09T14:17:00.405Z,21.20
2022-12-09T14:22:18.295Z,19.67
2022-12-09T14:27:27.884Z,20.80
2022-12-09T14:32:37.514Z,21.45
2022-12-09T14:37:51.993Z,21.10
2022-12-09T14:43:26.424Z,19.83
2022-12-09T14:48:35.398Z,19.73
2022-12-09T14:53:38.264Z,21.58
2022-12-09T14:58:40.234Z,21.85
2022-12-09T15:03:51.336Z,18.75
2022-12-09T15:08:58.415Z,18.95
2022-12-09T15:14:22.532Z,21.95
2022-12-09T15:29:53.841Z,21.45
2022-12-09T15:34:56.070Z,19.92
2022-12-09T15:40:08.819Z,20.15
2022-12-09T15:45:19.424Z,20.58
2022-12-09T15:50:28.520Z,20.15
2022-12-09T15:55:37.769Z,21.25
2022-12-09T16:00:48.765Z,20.30
2022-12-09T16:06:01.130Z,21.10
2022-12-09T16:11:03.302Z,21.52
2022-12-09T16:16:33.077Z,21.90
2022-12-09T16:21:36.374Z,21.73
2022-12-09T16:26:44.183Z,22.02
2022-12-09T16:31:45.957Z,22.23
2022-12-09T16:36:56.208Z,21.90
2022-12-09T16:42:00.823Z,22.90
2022-12-09T16:47:12.639Z,21.48
2022-12-09T16:52:20.670Z,22.92
2022-12-09T16:57:22.406Z,23.60
2022-12-09T17:02:39.464Z,24.67
2022-12-09T17:12:44.485Z,24.75
2022-12-09T17:17:48.888Z,25.05
2022-12-09T17:22:51.112Z,25.70
2022-12-09T17:27:53.288Z,25.33
2022-12-09T17:32:55.397Z,27.75
2022-12-09T17:37:57.114Z,27.25
2022-12-09T17:42:58.992Z,26.42
2022-12-09T17:48:00.939Z,25.05
2022-12-09T17:53:02.730Z,29.65
2022-12-09T17:58:04.796Z,26.27
2022-12-09T18:03:07.507Z,26.73
2022-12-09T18:08:09.931Z,24.13
2022-12-09T18:13:11.919Z,22.13
2022-12-09T18:18:13.713Z,24.15
2022-12-09T18:23:16.553Z,23.30
2022-12-09T18:28:18.248Z,23.92
2022-12-09T18:33:19.908Z,21.30
2022-12-09T18:38:21.673Z,22.70
2022-12-09T18:43:23.564Z,22.08
2022-12-09T18:48:25.292Z,20.88
2022-12-09T18:53:27.490Z,21.13
2022-12-09T18:58:57.515Z,20.48
2022-12-09T19:03:54.497Z,21.08
2022-12-09T19:08:58.810Z,19.65
2022-12-09T19:14:01.314Z,21.08
2022-12-09T19:19:09.200Z,19.98
2022-12-09T19:24:18.150Z,19.85
2022-12-09T19:29:20.748Z,20.35
2022-12-09T19:34:28.312Z,20.73
2022-12-09T19:39:31.606Z,19.40
2022-12-09T19:49:55.466Z,20.95
2022-12-09T19:54:57.362Z,20.35
2022-12-09T19:59:59.081Z,21.23
2022-12-09T20:05:00.821Z,20.77
2022-12-09T20:10:02.723Z,20.48
2022-12-09T20:15:07.953Z,18.85
2022-12-09T20:20:11.030Z,19.88
2022-12-09T20:25:12.762Z,21.48
2022-12-09T20:30:14.576Z,22.02
2022-12-09T20:35:16.655Z,20.90
2022-12-09T20:40:18.458Z,21.88
2022-12-09T20:45:20.194Z,24.58
2022-12-09T20:50:21.920Z,24.15
2022-12-09T20:55:23.641Z,24.33
2022-12-09T21:00:25.472Z,25.60
2022-12-09T21:05:27.270Z,26.90
2022-12-09T21:10:29.014Z,27.58
2022-12-09T21:15:30.793Z,27.75
2022-12-09T21:20:32.694Z,29.17
2022-12-09T21:25:34.417Z,29.27
2022-12-09T21:30:38.189Z,29.27
2022-12-09T21:35:45.302Z,28.33
2022-12-09T21:40:47.064Z,31.42
2022-12-09T21:45:48.857Z,31.23
2022-12-09T21:50:55.246Z,31.98
2022-12-09T21:56:15.861Z,30.40
2022-12-09T22:01:23.290Z,32.55
2022-12-09T22:06:25.788Z,31.45
2022-12-09T22:11:29.957Z,34.58
2022-12-09T22:16:34.561Z,34.95
2022-12-09T22:21:37.088Z,35.15
2022-12-09T22:26:40.017Z,37.40
2022-12-09T22:31:42.591Z,38.13
2022-12-09T22:36:45.022Z,40.65
2022-12-09T22:41:46.778Z,38.83
2022-12-09T22:46:49.176Z,39.38
2022-12-09T22:51:50.903Z,39.60
2022-12-09T22:56:52.744Z,39.80
2022-12-09T23:01:54.726Z,38.60
2022-12-09T23:06:56.632Z,37.60
2022-12-09T23:11:58.344Z,40.95
2022-12-09T23:17:00.022Z,41.30
2022-12-09T23:22:01.907Z,38.60
2022-12-09T23:27:04.717Z,40.10
2022-12-09T23:32:06.416Z,39.22
2022-12-09T23:37:08.021Z,40.50
2022-12-09T23:42:09.686Z,41.65
2022-12-09T23:47:11.413Z,37.97
2022-12-09T23:52:15.878Z,37.40
2022-12-09T23:57:17.586Z,40.38
